Time;durP1;ratioP1;P1;durP2;ratioP2;P2;SDS_P1;SDS_P2;PMS_P1;PMS_P2;Temp;Humidity;BMP_temperature;BMP_pressure;BME280_temperature;BME280_humidity;BME280_pressure;Samples;Min_cycle;Max_cycle;Signal;HPM_P1;HPM_P2
2023/02/22 00:01:49;;;;;;;3.70;2.70;;;;;;;2.14;71.71;98478.98;107297;1257;69545;-41
2023/02/22 00:04:20;;;;;;;3.70;2.90;;;;;;;2.13;71.46;98482.60;107288;1257;72659;-40
2023/02/22 00:06:49;;;;;;;4.60;3.10;;;;;;;2.11;71.63;98486.02;107286;1257;60772;-40
2023/02/22 00:09:20;;;;;;;3.40;2.90;;;;;;;2.08;71.57;98491.41;107243;1258;61238;-40
2023/02/22 00:11:49;;;;;;;7.90;3.30;;;;;;;2.04;71.12;98499.42;107272;1257;74206;-40
2023/02/22 00:14:20;;;;;;;4.40;3.40;;;;;;;2.01;71.02;98503.04;107295;1262;69917;-40
2023/02/22 00:16:49;;;;;;;6.20;3.20;;;;;;;2.03;71.00;98506.26;107214;1257;73520;-40
2023/02/22 00:19:17;;;;;;;4.10;3.10;;;;;;;2.09;70.72;98511.23;107230;1257;59787;-40
2023/02/22 00:21:52;;;;;;;4.40;3.30;;;;;;;2.11;70.51;98516.54;106399;1257;1003528;-40
2023/02/22 00:24:23;;;;;;;5.20;3.40;;;;;;;2.08;70.39;98521.45;107231;1257;73112;-41
2023/02/22 00:26:57;;;;;;;4.50;3.40;;;;;;;2.04;70.09;98529.12;107269;1257;69676;-40
2023/02/22 00:29:25;;;;;;;5.20;4.00;;;;;;;1.97;70.00;98532.40;107259;1257;74221;-41
2023/02/22 00:31:54;;;;;;;6.60;4.40;;;;;;;1.91;69.72;98535.58;107182;1257;59745;-41
2023/02/22 00:34:23;;;;;;;4.80;3.80;;;;;;;1.84;69.70;98537.36;107232;1257;61486;-41
2023/02/22 00:36:51;;;;;;;5.50;4.10;;;;;;;1.82;69.96;98543.92;107196;1257;74068;-41
2023/02/22 00:39:20;;;;;;;5.50;3.70;;;;;;;1.84;70.04;98548.41;107212;1257;69886;-41
2023/02/22 00:41:49;;;;;;;7.30;4.00;;;;;;;1.88;69.79;98556.21;107160;1257;73263;-41
2023/02/22 00:44:19;;;;;;;6.30;3.50;;;;;;;1.87;69.88;98566.07;107131;1257;59746;-41
2023/02/22 00:46:48;;;;;;;5.70;3.70;;;;;;;1.85;69.68;98572.73;107274;1257;61575;-41
2023/02/22 00:49:16;;;;;;;5.50;3.90;;;;;;;1.82;69.63;98574.55;107214;1257;74269;-41
2023/02/22 00:51:45;;;;;;;5.60;4.10;;;;;;;1.79;69.68;98573.80;107230;1261;69923;-41
2023/02/22 00:54:18;;;;;;;5.20;3.60;;;;;;;1.75;69.74;98579.75;107261;1262;73768;-41
2023/02/22 00:56:49;;;;;;;5.20;3.90;;;;;;;1.73;69.87;98583.83;107272;1257;60851;-41
2023/02/22 00:59:18;;;;;;;5.40;3.90;;;;;;;1.72;69.74;98591.50;107270;1262;61513;-41
2023/02/22 01:01:46;;;;;;;7.70;3.70;;;;;;;1.76;69.72;98594.63;107274;1257;73915;-41
2023/02/22 01:04:17;;;;;;;6.10;3.70;;;;;;;1.83;69.50;98601.61;107261;1257;69609;-41
2023/02/22 01:06:45;;;;;;;;;;;;;;;1.84;69.53;98604.17;107244;1257;74963;-41
2023/02/22 01:09:16;;;;;;;5.60;3.90;;;;;;;1.78;69.63;98609.42;107276;1262;60960;-41
2023/02/22 01:11:45;;;;;;;6.10;4.30;;;;;;;1.74;69.76;98608.11;107245;1257;61412;-41
2023/02/22 01:14:13;;;;;;;6.30;4.30;;;;;;;1.74;69.75;98616.38;107248;1257;74135;-41
2023/02/22 01:16:43;;;;;;;5.80;3.80;;;;;;;1.74;69.79;98623.77;107249;1261;69933;-41
2023/02/22 01:19:14;;;;;;;5.40;3.90;;;;;;;1.75;69.90;98622.30;107266;1257;73907;-41
2023/02/22 01:21:43;;;;;;;6.10;4.50;;;;;;;1.75;69.71;98624.73;107254;1257;60440;-41
2023/02/22 01:24:15;;;;;;;7.40;4.00;;;;;;;1.72;69.55;98634.09;107252;1257;61410;-41
2023/02/22 01:26:51;;;;;;;5.20;4.00;;;;;;;1.75;69.72;98638.80;107235;1257;74937;-41
2023/02/22 01:29:20;;;;;;;6.20;4.40;;;;;;;1.85;69.63;98643.39;107323;1262;68427;-41
2023/02/22 01:31:54;;;;;;;7.80;5.00;;;;;;;1.89;69.68;98644.94;107278;1260;73775;-41
2023/02/22 01:34:23;;;;;;;6.90;4.50;;;;;;;1.90;69.38;98648.70;107211;1262;60723;-41
2023/02/22 01:36:52;;;;;;;7.10;4.50;;;;;;;1.87;69.43;98653.79;107206;1257;61287;-41
2023/02/22 01:39:20;;;;;;;7.40;4.20;;;;;;;1.82;69.35;98652.89;107177;1257;75021;-41
2023/02/22 01:41:49;;;;;;;6.40;4.10;;;;;;;1.79;69.21;98659.05;107185;1258;68866;-41
2023/02/22 01:44:31;;;;;;;6.10;4.10;;;;;;;1.74;68.85;98660.20;107182;1260;73894;-41
2023/02/22 01:47:01;;;;;;;5.70;4.50;;;;;;;1.66;68.71;98668.61;107153;1263;60805;-39
2023/02/22 01:49:50;;;;;;;6.60;4.10;;;;;;;1.59;68.67;98676.73;107246;1258;61416;-40
2023/02/22 01:52:19;;;;;;;4.80;3.80;;;;;;;1.61;68.41;98678.71;107317;1258;75171;-40
2023/02/22 01:54:51;;;;;;;6.60;4.20;;;;;;;1.63;68.24;98680.62;107071;1257;69764;-40
2023/02/22 01:57:24;;;;;;;5.40;4.00;;;;;;;1.61;67.83;98686.13;107200;1257;73861;-40
2023/02/22 01:59:57;;;;;;;6.30;4.10;;;;;;;1.58;67.97;98690.25;107242;1263;60794;-40
2023/02/22 02:02:26;;;;;;;5.30;4.00;;;;;;;1.57;67.88;98693.65;107304;1263;61175;-40
2023/02/22 02:04:55;;;;;;;6.20;4.30;;;;;;;1.55;68.02;98695.71;107281;1256;73500;-40
2023/02/22 02:07:28;;;;;;;6.50;4.20;;;;;;;1.56;67.92;98701.19;107215;1258;70223;-40
2023/02/22 02:09:58;;;;;;;7.30;4.70;;;;;;;1.58;67.94;98709.42;107197;1260;73602;-40
2023/02/22 02:12:28;;;;;;;6.30;4.40;;;;;;;1.60;68.03;98712.99;107167;1263;60335;-40
2023/02/22 02:15:20;;;;;;;6.00;4.30;;;;;;;1.56;67.80;98713.23;107306;1261;61483;-40
2023/02/22 02:17:49;;;;;;;6.40;4.20;;;;;;;1.54;67.62;98718.64;107243;1261;73957;-40
2023/02/22 02:20:36;;;;;;;5.50;3.80;;;;;;;1.57;67.48;98722.43;107263;1257;69681;-40
2023/02/22 02:23:23;;;;;;;6.00;4.10;;;;;;;1.66;67.30;98731.55;107249;1257;73888;-40
2023/02/22 02:26:30;;;;;;;5.90;3.90;;;;;;;1.70;66.97;98732.39;107295;1257;60798;-40
2023/02/22 02:29:19;;;;;;;7.30;3.80;;;;;;;1.65;66.19;98740.40;107251;1259;61557;-40
2023/02/22 02:32:06;;;;;;;6.00;4.10;;;;;;;1.57;66.16;98748.52;107249;1258;75155;-40
2023/02/22 02:35:00;;;;;;;5.70;4.00;;;;;;;1.48;65.67;98749.05;107291;1262;69737;-40
2023/02/22 02:37:47;;;;;;;5.70;3.90;;;;;;;1.40;65.99;98755.72;107265;1263;72897;-40
2023/02/22 02:40:30;;;;;;;7.20;4.30;;;;;;;1.35;66.32;98757.16;107287;1257;61020;-40
2023/02/22 02:43:25;;;;;;;6.80;4.20;;;;;;;1.30;66.53;98761.15;106504;1262;1002996;-40
2023/02/22 02:45:57;;;;;;;5.00;3.60;;;;;;;1.28;67.04;98767.07;107235;1257;75033;-40
2023/02/22 02:48:27;;;;;;;5.90;4.00;;;;;;;1.28;66.57;98772.98;107290;1257;69219;-40
2023/02/22 02:50:57;;;;;;;;;;;;;;;1.31;66.05;98772.80;107254;1263;73767;-40
2023/02/22 02:53:35;;;;;;;5.60;3.70;;;;;;;1.28;66.19;98776.36;107227;1258;60462;-40
2023/02/22 02:56:04;;;;;;;5.20;3.50;;;;;;;1.27;66.15;98780.30;107165;1259;61610;-40
2023/02/22 02:58:41;;;;;;;4.90;2.80;;;;;;;1.28;66.11;98781.37;107194;1258;75085;-40
2023/02/22 03:01:10;;;;;;;4.90;3.80;;;;;;;1.32;66.14;98786.77;107045;1263;69920;-40
2023/02/22 03:04:04;;;;;;;8.00;4.30;;;;;;;1.32;65.91;98785.64;107266;1257;73952;-40
2023/02/22 03:06:43;;;;;;;6.70;3.90;;;;;;;1.31;65.74;98789.63;107301;1263;60441;-41
2023/02/22 03:09:28;;;;;;;5.30;4.00;;;;;;;1.26;65.51;98795.09;107368;1258;60378;-40
2023/02/22 03:12:18;;;;;;;5.70;3.50;;;;;;;1.25;65.62;98800.15;107271;1257;75027;-40
2023/02/22 03:15:01;;;;;;;6.90;4.00;;;;;;;1.24;65.28;98807.13;107292;1259;69889;-40
2023/02/22 03:17:43;;;;;;;6.20;4.10;;;;;;;1.20;65.08;98808.91;107330;1257;72972;-40
2023/02/22 03:20:15;;;;;;;5.80;4.00;;;;;;;1.19;65.17;98818.98;107272;1258;60744;-40
2023/02/22 03:22:52;;;;;;;6.00;4.20;;;;;;;1.15;64.95;98818.45;107252;1262;61317;-40
2023/02/22 03:25:33;;;;;;;7.00;4.40;;;;;;;1.12;64.87;98820.04;107278;1258;74982;-39
2023/02/22 03:28:06;;;;;;;6.50;4.10;;;;;;;1.01;64.96;98817.83;107261;1262;68663;-40
2023/02/22 03:30:41;;;;;;;5.60;3.60;;;;;;;1.12;65.01;98833.04;107244;1257;73466;-39
2023/02/22 03:33:14;;;;;;;4.70;3.60;;;;;;;1.21;64.86;98834.44;107271;1257;60428;-40
2023/02/22 03:35:48;;;;;;;7.10;4.40;;;;;;;1.27;64.97;98839.92;107163;1263;61114;-39
2023/02/22 03:38:18;;;;;;;6.50;4.50;;;;;;;1.33;65.06;98841.83;107309;1257;74941;-40
2023/02/22 03:40:49;;;;;;;7.20;4.70;;;;;;;1.39;65.27;98836.52;107249;1259;69425;-39
2023/02/22 03:43:24;;;;;;;7.00;5.00;;;;;;;1.47;65.23;98838.37;107291;1258;72859;-40
2023/02/22 03:45:54;;;;;;;6.50;4.70;;;;;;;1.53;64.86;98843.21;107329;1262;61130;-40
2023/02/22 03:48:37;;;;;;;6.80;4.30;;;;;;;1.56;64.73;98844.23;107263;1258;61318;-40
2023/02/22 03:51:06;;;;;;;6.80;4.40;;;;;;;1.58;64.54;98848.80;107270;1261;75046;-40
2023/02/22 03:53:36;;;;;;;6.40;4.60;;;;;;;1.59;64.51;98850.69;107299;1258;69728;-40
2023/02/22 03:56:07;;;;;;;8.80;5.20;;;;;;;1.61;64.08;98857.65;107284;1257;72866;-40
2023/02/22 03:58:38;;;;;;;6.80;4.60;;;;;;;1.55;63.85;98862.38;107087;1258;59371;-40
2023/02/22 04:01:07;;;;;;;8.20;5.40;;;;;;;1.49;64.08;98866.14;107302;1263;60453;-40
2023/02/22 04:03:36;;;;;;;8.50;5.10;;;;;;;1.44;64.32;98867.02;107225;1257;74887;-40
2023/02/22 04:06:05;;;;;;;7.30;4.90;;;;;;;1.41;64.61;98868.81;107150;1257;69750;-40
2023/02/22 04:08:34;;;;;;;6.30;5.20;;;;;;;1.41;64.53;98866.15;107260;1262;73689;-40
2023/02/22 04:11:03;;;;;;;8.20;5.40;;;;;;;1.37;64.50;98870.20;107239;1260;60555;-39
2023/02/22 04:13:31;;;;;;;6.80;5.10;;;;;;;1.30;64.52;98874.83;107159;1257;61299;-39
2023/02/22 04:16:00;;;;;;;6.20;4.60;;;;;;;1.31;64.46;98882.29;107160;1257;75069;-40
2023/02/22 04:18:29;;;;;;;5.60;3.80;;;;;;;1.43;64.44;98887.23;107228;1263;68983;-39
2023/02/22 04:21:03;;;;;;;6.90;5.00;;;;;;;1.49;64.78;98888.60;107188;1261;73530;-40
2023/02/22 04:23:38;;;;;;;8.00;5.20;;;;;;;1.52;64.66;98892.34;107211;1257;60518;-40
2023/02/22 04:26:08;;;;;;;8.60;5.40;;;;;;;1.56;64.78;98893.81;107235;1257;61343;-40
2023/02/22 04:28:37;;;;;;;7.60;5.10;;;;;;;1.62;64.62;98894.34;107050;1257;74391;-40
2023/02/22 04:31:25;;;;;;;7.80;4.70;;;;;;;1.64;64.51;98898.77;107219;1261;69774;-40
2023/02/22 04:33:56;;;;;;;7.80;5.10;;;;;;;1.66;64.66;98901.85;107196;1257;73552;-39
2023/02/22 04:36:30;;;;;;;8.40;5.30;;;;;;;1.69;64.55;98903.52;107198;1263;60511;-40
2023/02/22 04:38:59;;;;;;;7.30;5.50;;;;;;;1.71;64.35;98907.17;107259;1257;60350;-40
2023/02/22 04:41:30;;;;;;;6.70;4.80;;;;;;;1.71;64.46;98912.66;107205;1258;75039;-40
2023/02/22 04:43:59;;;;;;;8.70;5.80;;;;;;;1.70;64.47;98920.56;107112;1258;69947;-40
2023/02/22 04:46:30;;;;;;;8.20;5.40;;;;;;;1.67;64.38;98921.59;107218;1257;73348;-40
2023/02/22 04:48:59;;;;;;;7.50;5.10;;;;;;;1.63;64.48;98926.90;107272;1257;60767;-40
2023/02/22 04:51:31;;;;;;;8.30;6.00;;;;;;;1.61;64.76;98931.91;107211;1257;60441;-39
2023/02/22 04:54:02;;;;;;;8.00;5.50;;;;;;;1.59;64.99;98935.88;106453;1257;1003774;-40
2023/02/22 04:56:34;;;;;;;9.90;5.20;;;;;;;1.53;65.13;98942.36;107202;1262;69592;-40
2023/02/22 04:59:04;;;;;;;7.10;4.90;;;;;;;1.52;65.20;98946.01;107158;1258;73539;-40
2023/02/22 05:01:36;;;;;;;8.10;5.50;;;;;;;1.61;65.42;98952.38;107201;1262;59696;-39
2023/02/22 05:04:06;;;;;;;8.10;5.80;;;;;;;1.67;65.37;98959.21;107256;1257;61658;-39
2023/02/22 05:06:34;;;;;;;8.70;5.30;;;;;;;1.69;65.19;98960.17;107241;1257;74705;-40
2023/02/22 05:09:03;;;;;;;8.90;5.20;;;;;;;1.67;64.73;98966.54;107203;1262;69669;-40
2023/02/22 05:11:34;;;;;;;8.00;5.10;;;;;;;1.60;64.19;98971.17;107212;1257;73860;-40
2023/02/22 05:14:02;;;;;;;7.70;5.00;;;;;;;1.55;64.49;98978.17;107210;1258;60530;-40
2023/02/22 05:16:33;;;;;;;7.00;4.90;;;;;;;1.51;64.46;98987.13;107229;1258;61504;-40
2023/02/22 05:19:03;;;;;;;8.10;5.40;;;;;;;1.44;64.75;98992.17;107243;1257;74862;-40
2023/02/22 05:21:32;;;;;;;9.60;6.10;;;;;;;1.40;64.74;98995.61;107204;1257;69078;-40
2023/02/22 05:24:00;;;;;;;9.00;5.50;;;;;;;1.34;64.88;98999.30;107177;1257;73861;-40
2023/02/22 05:26:29;;;;;;;8.20;5.50;;;;;;;1.27;65.09;99007.61;107175;1257;60801;-40
2023/02/22 05:28:59;;;;;;;8.90;5.60;;;;;;;1.19;64.75;99010.40;107188;1257;60450;-40
2023/02/22 05:31:28;;;;;;;8.50;5.50;;;;;;;1.06;64.57;99019.18;107184;1260;73798;-40
2023/02/22 05:33:57;;;;;;;5.30;3.70;;;;;;;0.91;64.42;99022.16;107129;1261;69950;-40
2023/02/22 05:36:26;;;;;;;7.30;4.90;;;;;;;0.78;64.49;99030.10;107077;1262;73770;-40
2023/02/22 05:38:55;;;;;;;7.20;4.60;;;;;;;0.71;64.72;99031.80;107092;1261;62422;-40
2023/02/22 05:41:23;;;;;;;8.50;4.90;;;;;;;0.71;64.67;99038.05;107068;1261;61058;-40
2023/02/22 05:43:52;;;;;;;6.90;4.80;;;;;;;0.71;64.84;99037.20;107083;1260;74058;-40
2023/02/22 05:46:20;;;;;;;7.80;5.40;;;;;;;0.73;64.75;99039.39;107183;1263;69839;-40
2023/02/22 05:48:49;;;;;;;9.20;5.40;;;;;;;0.77;64.55;99039.14;107186;1261;73908;-40
2023/02/22 05:51:18;;;;;;;6.70;4.80;;;;;;;0.76;64.15;99045.82;107187;1264;60691;-40
2023/02/22 05:53:47;;;;;;;7.00;5.50;;;;;;;0.75;63.89;99052.58;107222;1260;61183;-40
2023/02/22 05:56:22;;;;;;;7.30;4.90;;;;;;;0.73;63.90;99054.77;107210;1263;74884;-40
2023/02/22 05:58:51;;;;;;;7.70;5.40;;;;;;;0.72;63.54;99055.73;106419;1260;1003706;-40
2023/02/22 06:01:20;;;;;;;5.80;4.80;;;;;;;0.70;63.50;99061.77;107173;1261;73846;-39
2023/02/22 06:03:49;;;;;;;7.70;5.40;;;;;;;0.67;63.45;99062.25;107160;1258;60794;-40
2023/02/22 06:06:19;;;;;;;7.90;5.50;;;;;;;0.62;63.28;99065.26;107223;1258;59539;-40
2023/02/22 06:08:49;;;;;;;6.30;4.80;;;;;;;0.57;63.34;99069.30;107147;1258;75001;-40
2023/02/22 06:11:18;;;;;;;7.40;5.00;;;;;;;0.51;63.55;99075.48;107151;1261;68917;-40
2023/02/22 06:13:58;;;;;;;;;;;;;;;0.47;63.84;99081.97;107123;1260;74104;-40
2023/02/22 06:16:27;;;;;;;9.90;5.70;;;;;;;0.38;63.88;99087.48;107186;1259;60760;-40
2023/02/22 06:18:55;;;;;;;9.90;5.20;;;;;;;0.34;64.07;99103.71;107137;1261;61229;-40
2023/02/22 06:21:23;;;;;;;7.70;5.00;;;;;;;0.37;63.90;99104.19;107171;1260;75042;-40
2023/02/22 06:23:52;;;;;;;7.10;5.60;;;;;;;0.39;64.35;99109.11;107077;1259;69908;-40
2023/02/22 06:26:21;;;;;;;8.10;5.20;;;;;;;0.37;64.45;99113.14;107141;1260;73980;-40
2023/02/22 06:28:50;;;;;;;7.20;5.00;;;;;;;0.37;64.60;99117.57;107165;1261;61300;-40
2023/02/22 06:31:20;;;;;;;7.90;5.40;;;;;;;0.42;64.76;99125.90;107166;1260;61353;-40
2023/02/22 06:33:48;;;;;;;7.80;5.20;;;;;;;0.47;65.04;99126.70;107283;1258;75094;-40
2023/02/22 06:36:17;;;;;;;7.30;5.40;;;;;;;0.51;65.27;99131.39;107245;1257;69957;-40
2023/02/22 06:38:46;;;;;;;6.90;5.00;;;;;;;0.46;65.31;99123.27;107237;1257;72774;-40
2023/02/22 06:41:14;;;;;;;7.50;5.40;;;;;;;0.57;65.43;99139.67;107214;1257;60933;-40
2023/02/22 06:43:46;;;;;;;8.80;6.00;;;;;;;0.59;65.69;99139.79;107239;1257;61548;-40
2023/02/22 06:46:14;;;;;;;9.10;5.80;;;;;;;0.59;65.95;99149.08;107257;1257;75033;-40
2023/02/22 06:48:43;;;;;;;7.40;5.40;;;;;;;0.57;66.22;99152.31;107271;1257;69971;-40
2023/02/22 06:51:12;;;;;;;8.60;5.60;;;;;;;0.55;66.50;99149.15;107270;1257;73938;-40
2023/02/22 06:53:44;;;;;;;8.40;5.50;;;;;;;0.55;66.78;99156.78;107253;1258;62582;-40
2023/02/22 06:56:13;;;;;;;7.60;5.30;;;;;;;0.60;66.67;99163.94;107272;1257;61380;-40
2023/02/22 06:58:42;;;;;;;8.10;5.60;;;;;;;0.70;66.52;99164.96;107252;1257;74665;-40
2023/02/22 07:01:10;;;;;;;9.20;5.90;;;;;;;0.72;66.56;99173.95;107294;1257;69937;-40
2023/02/22 07:03:39;;;;;;;6.00;4.70;;;;;;;0.73;66.72;99166.83;107283;1257;73080;-40
2023/02/22 07:06:09;;;;;;;8.70;5.30;;;;;;;0.77;66.78;99168.81;107229;1257;60501;-40
2023/02/22 07:08:38;;;;;;;6.70;5.10;;;;;;;0.79;65.77;99169.89;107267;1257;60184;-40
2023/02/22 07:11:07;;;;;;;8.00;5.50;;;;;;;0.75;64.95;99171.95;107255;1257;74882;-40
2023/02/22 07:13:36;;;;;;;9.10;5.60;;;;;;;0.71;64.61;99173.69;107272;1257;67839;-39
2023/02/22 07:16:08;;;;;;;9.10;5.80;;;;;;;0.69;64.80;99179.59;107209;1257;72306;-40
2023/02/22 07:18:37;;;;;;;8.00;5.50;;;;;;;0.66;64.75;99179.51;107289;1257;60411;-40
2023/02/22 07:21:06;;;;;;;6.40;4.10;;;;;;;0.56;64.97;99172.61;107236;1257;61359;-40
2023/02/22 07:23:35;;;;;;;7.80;5.60;;;;;;;0.65;64.92;99187.36;107300;1257;73500;-40
2023/02/22 07:26:07;;;;;;;8.40;5.30;;;;;;;0.69;65.10;99190.32;107292;1260;68580;-40
2023/02/22 07:28:35;;;;;;;7.60;5.60;;;;;;;0.72;64.82;99194.20;107228;1257;73875;-40
2023/02/22 07:31:04;;;;;;;9.70;5.70;;;;;;;0.72;64.78;99196.27;107206;1258;60536;-40
2023/02/22 07:33:33;;;;;;;8.50;5.80;;;;;;;0.74;64.55;99197.31;107258;1257;60547;-40
2023/02/22 07:36:01;;;;;;;7.60;5.20;;;;;;;0.76;64.55;99196.31;107242;1257;74936;-40
2023/02/22 07:38:31;;;;;;;6.40;4.70;;;;;;;0.78;64.41;99197.38;107245;1258;69205;-40
2023/02/22 07:41:00;;;;;;;8.50;5.30;;;;;;;0.79;64.32;99196.92;107236;1257;74046;-40
2023/02/22 07:43:30;;;;;;;7.40;4.90;;;;;;;0.82;64.58;99201.30;107235;1258;60550;-40
2023/02/22 07:46:01;;;;;;;8.30;5.50;;;;;;;0.86;64.57;99202.77;107292;1257;60351;-40
2023/02/22 07:48:31;;;;;;;7.60;5.00;;;;;;;0.95;64.56;99204.34;107214;1260;75074;-40
2023/02/22 07:50:59;;;;;;;9.40;5.60;;;;;;;1.05;64.53;99203.86;107292;1257;69513;-40
2023/02/22 07:53:29;;;;;;;8.60;5.30;;;;;;;1.14;64.52;99205.54;107261;1257;74008;-40
2023/02/22 07:56:00;;;;;;;8.20;5.80;;;;;;;1.22;64.25;99206.21;107240;1257;60364;-40
2023/02/22 07:58:29;;;;;;;8.10;5.50;;;;;;;1.25;63.77;99212.11;107153;1257;59310;-40
2023/02/22 08:01:00;;;;;;;7.40;5.50;;;;;;;1.27;63.29;99214.46;106353;1257;1003718;-40
2023/02/22 08:03:33;;;;;;;7.50;5.30;;;;;;;1.27;62.89;99217.52;107145;1257;69970;-40
2023/02/22 08:06:01;;;;;;;8.30;5.10;;;;;;;1.24;62.64;99216.41;107160;1260;73102;-40
2023/02/22 08:08:31;;;;;;;8.50;5.30;;;;;;;1.24;62.66;99214.90;107248;1257;60832;-40
2023/02/22 08:11:00;;;;;;;8.60;5.20;;;;;;;1.23;62.42;99217.44;107270;1257;61583;-40
2023/02/22 08:13:29;;;;;;;9.80;5.60;;;;;;;1.22;62.53;99217.27;107275;1256;74829;-40
2023/02/22 08:15:59;;;;;;;8.50;5.60;;;;;;;1.21;62.38;99219.36;107165;1257;69943;-40
2023/02/22 08:18:28;;;;;;;9.60;5.70;;;;;;;1.17;62.34;99223.78;107174;1257;73580;-41
2023/02/22 08:20:59;;;;;;;7.00;5.30;;;;;;;1.15;62.38;99232.06;107177;1257;60433;-41
2023/02/22 08:23:28;;;;;;;10.30;5.60;;;;;;;1.15;62.45;99231.63;107273;1257;60980;-41
2023/02/22 08:25:56;;;;;;;8.40;5.50;;;;;;;1.16;62.42;99229.55;107251;1257;75054;-41
2023/02/22 08:28:25;;;;;;;8.60;5.70;;;;;;;1.17;62.19;99236.33;107266;1260;69851;-41
2023/02/22 08:30:53;;;;;;;7.80;5.40;;;;;;;1.19;61.83;99239.29;107169;1257;73959;-41
2023/02/22 08:33:24;;;;;;;8.50;5.60;;;;;;;1.19;61.98;99237.09;107232;1257;60648;-41
2023/02/22 08:35:53;;;;;;;9.40;6.20;;;;;;;1.19;62.08;99235.90;107185;1257;61555;-40
2023/02/22 08:38:26;;;;;;;10.10;6.00;;;;;;;1.18;62.49;99237.30;107209;1257;74713;-42
2023/02/22 08:40:55;;;;;;;8.10;5.40;;;;;;;1.17;62.66;99243.80;107193;1257;69909;-41
2023/02/22 08:43:23;;;;;;;9.00;5.60;;;;;;;1.21;62.64;99249.68;107216;1260;73245;-40
2023/02/22 08:45:52;;;;;;;9.10;5.90;;;;;;;1.36;62.66;99245.69;107216;1257;60581;-41
2023/02/22 08:48:24;;;;;;;9.90;6.50;;;;;;;1.45;62.59;99248.41;107201;1257;61519;-41
2023/02/22 08:50:54;;;;;;;9.70;6.70;;;;;;;1.48;62.18;99242.80;107264;1257;75135;-40
2023/02/22 08:53:23;;;;;;;9.30;6.00;;;;;;;1.54;61.62;99246.60;107237;1257;69654;-40
2023/02/22 08:55:52;;;;;;;9.20;6.40;;;;;;;1.59;60.61;99248.84;107238;1257;73011;-40
2023/02/22 08:58:22;;;;;;;9.70;6.80;;;;;;;1.61;60.44;99252.43;107254;1256;60598;-40
2023/02/22 09:00:52;;;;;;;7.20;4.90;;;;;;;1.60;60.40;99251.04;107214;1257;61509;-40
2023/02/22 09:03:22;;;;;;;7.80;5.20;;;;;;;1.62;60.45;99253.73;107228;1257;75144;-40
2023/02/22 09:05:51;;;;;;;10.60;6.80;;;;;;;1.66;60.52;99259.80;107173;1257;68091;-40
2023/02/22 09:08:21;;;;;;;8.80;5.90;;;;;;;1.59;60.83;99247.45;106339;1257;1003832;-40
2023/02/22 09:10:50;;;;;;;12.10;7.30;;;;;;;1.66;60.76;99264.23;107081;1257;60732;-40
2023/02/22 09:13:19;;;;;;;10.30;6.80;;;;;;;1.67;60.77;99261.23;107098;1257;61222;-40
2023/02/22 09:15:49;;;;;;;9.70;6.90;;;;;;;1.70;60.73;99266.91;107161;1257;75085;-40
2023/02/22 09:18:17;;;;;;;9.70;6.40;;;;;;;1.70;60.25;99265.20;107211;1260;69915;-41
2023/02/22 09:20:51;;;;;;;9.70;6.30;;;;;;;1.60;60.60;99253.03;107208;1257;73872;-40
2023/02/22 09:23:22;;;;;;;10.00;6.70;;;;;;;1.68;61.05;99265.73;107068;1257;169523;-41
2023/02/22 09:26:50;;;;;;;10.90;7.10;;;;;;;1.77;61.29;99271.23;104141;1292;600962;-41
2023/02/22 09:29:23;;;;;;;9.60;6.80;;;;;;;1.77;61.18;99276.42;106712;1266;60800;-41
2023/02/22 09:31:53;;;;;;;9.20;6.20;;;;;;;1.72;60.98;99275.89;106725;1266;61480;-41
2023/02/22 09:34:28;;;;;;;;;;;;;;;1.73;61.32;99276.95;106744;1267;73386;-41
2023/02/22 09:36:57;;;;;;;9.30;6.00;;;;;;;1.67;61.58;99277.14;106740;1266;67389;-41
2023/02/22 09:39:26;;;;;;;9.50;6.80;;;;;;;1.65;61.70;99276.07;106538;1263;221739;-41
2023/02/22 09:42:00;;;;;;;13.00;7.10;;;;;;;1.65;61.70;99278.25;106784;1263;60070;-41
2023/02/22 09:44:52;;;;;;;10.40;7.60;;;;;;;1.66;61.87;99277.85;106828;1263;61069;-41
2023/02/22 09:47:31;;;;;;;9.90;7.30;;;;;;;1.72;62.28;99278.75;106816;1264;73133;-41
2023/02/22 09:50:14;;;;;;;10.70;7.50;;;;;;;1.76;62.39;99280.63;106073;1263;1003347;-41
2023/02/22 09:52:55;;;;;;;11.90;7.40;;;;;;;1.78;61.72;99281.59;106813;1264;73903;-41
2023/02/22 09:55:56;;;;;;;12.00;8.00;;;;;;;1.71;61.50;99278.54;107035;1260;59620;-41
2023/02/22 09:58:32;;;;;;;11.40;7.40;;;;;;;1.67;61.83;99275.84;106890;1260;61579;-40
2023/02/22 10:01:28;;;;;;;9.60;6.60;;;;;;;1.67;62.04;99276.45;106882;1260;74033;-40
2023/02/22 10:04:23;;;;;;;10.70;7.20;;;;;;;1.71;61.97;99272.88;106853;1260;69457;-40
2023/02/22 10:07:04;;;;;;;13.10;8.20;;;;;;;1.72;62.14;99273.34;106984;1260;73944;-40
2023/02/22 10:09:36;;;;;;;11.40;7.20;;;;;;;1.73;61.01;99273.38;106968;1260;60705;-40
2023/02/22 10:12:17;;;;;;;9.60;6.30;;;;;;;1.67;60.38;99269.50;107040;1260;61531;-40
2023/02/22 10:15:14;;;;;;;9.50;6.70;;;;;;;1.66;60.53;99271.48;106949;1260;73037;-41
2023/02/22 10:17:59;;;;;;;15.20;7.40;;;;;;;1.65;60.29;99267.73;106969;1260;69858;-41
2023/02/22 10:20:54;;;;;;;12.40;7.40;;;;;;;1.67;60.18;99268.95;107067;1260;72746;-41
2023/02/22 10:23:33;;;;;;;6.70;5.40;;;;;;;1.66;59.05;99269.52;107037;1260;60305;-41
2023/02/22 10:26:32;;;;;;;8.10;5.20;;;;;;;1.66;58.47;99269.84;107031;1260;61609;-41
2023/02/22 10:29:35;;;;;;;7.50;5.20;;;;;;;1.74;57.98;99267.77;107029;1260;74199;-40
2023/02/22 10:32:05;;;;;;;6.50;4.90;;;;;;;1.75;57.40;99272.25;107047;1260;69886;-40
2023/02/22 10:34:41;;;;;;;9.20;4.90;;;;;;;1.74;57.46;99273.98;107059;1260;73672;-40
2023/02/22 10:37:16;;;;;;;9.40;5.60;;;;;;;1.77;57.53;99276.80;106990;1260;60728;-40
2023/02/22 10:39:45;;;;;;;8.70;5.80;;;;;;;1.82;57.90;99278.26;107052;1260;61933;-40
2023/02/22 10:42:14;;;;;;;10.90;6.80;;;;;;;1.88;57.71;99280.02;106909;1260;74276;-40
2023/02/22 10:44:43;;;;;;;6.20;4.50;;;;;;;1.93;57.61;99278.61;107043;1260;69646;-40
2023/02/22 10:47:17;;;;;;;10.90;6.40;;;;;;;1.93;57.63;99281.89;107031;1260;72683;-40
2023/02/22 10:49:55;;;;;;;7.20;4.80;;;;;;;1.91;57.51;99283.57;107022;1260;60764;-40
2023/02/22 10:52:31;;;;;;;6.50;5.00;;;;;;;1.94;57.00;99281.58;107033;1260;61431;-40
2023/02/22 10:55:00;;;;;;;7.70;5.70;;;;;;;1.94;57.05;99281.73;107098;1260;73115;-40
2023/02/22 10:57:48;;;;;;;7.80;5.40;;;;;;;1.95;57.00;99280.95;107070;1264;69950;-40
2023/02/22 11:00:25;;;;;;;7.50;5.50;;;;;;;1.94;56.79;99284.48;107028;1259;73623;-40
2023/02/22 11:03:01;;;;;;;8.50;5.30;;;;;;;1.89;56.97;99286.13;107076;1260;60731;-41
2023/02/22 11:05:36;;;;;;;9.30;5.50;;;;;;;1.86;57.01;99290.48;107045;1260;59662;-40
2023/02/22 11:08:19;;;;;;;7.80;5.50;;;;;;;1.85;57.20;99289.88;107075;1260;74254;-40
2023/02/22 11:10:50;;;;;;;7.10;5.00;;;;;;;1.84;57.19;99293.73;107036;1259;69932;-40
2023/02/22 11:13:30;;;;;;;8.50;5.10;;;;;;;1.82;56.69;99291.97;107067;1260;71992;-40
2023/02/22 11:16:16;;;;;;;7.70;4.40;;;;;;;1.81;56.43;99295.00;107044;1260;60726;-40
2023/02/22 11:18:46;;;;;;;9.20;5.30;;;;;;;1.79;56.31;99295.14;107021;1261;61634;-40
2023/02/22 11:21:21;;;;;;;9.00;4.90;;;;;;;1.76;56.60;99297.56;106954;1260;73926;-39
2023/02/22 11:24:00;;;;;;;8.00;5.60;;;;;;;1.73;56.83;99303.02;107043;1260;69642;-40
2023/02/22 11:26:42;;;;;;;7.70;5.00;;;;;;;1.69;56.68;99305.79;106998;1260;73921;-40
2023/02/22 11:29:32;;;;;;;6.90;5.40;;;;;;;1.70;56.80;99305.60;107030;1260;60582;-40
2023/02/22 11:32:12;;;;;;;7.60;5.70;;;;;;;1.70;56.81;99305.92;107050;1260;61511;-40
2023/02/22 11:34:48;;;;;;;7.30;4.80;;;;;;;1.66;56.73;99311.45;107040;1260;72993;-40
2023/02/22 11:37:33;;;;;;;8.70;5.20;;;;;;;1.63;56.84;99312.13;107060;1260;67895;-41
2023/02/22 11:40:11;;;;;;;7.50;5.10;;;;;;;1.62;56.01;99310.70;107027;1260;73910;-40
2023/02/22 11:42:42;;;;;;;7.30;5.10;;;;;;;1.57;56.97;99311.62;106921;1260;60760;-40
2023/02/22 11:45:11;;;;;;;6.70;5.00;;;;;;;1.55;56.38;99312.36;106923;1261;59539;-40
2023/02/22 11:47:54;;;;;;;6.80;5.20;;;;;;;1.56;57.05;99308.07;106939;1261;74087;-40
2023/02/22 11:50:32;;;;;;;7.50;5.10;;;;;;;1.65;57.29;99307.17;106923;1261;68830;-40
2023/02/22 11:53:20;;;;;;;6.70;4.30;;;;;;;1.75;57.37;99301.00;106881;1260;73477;-41
2023/02/22 11:56:28;;;;;;;6.40;4.70;;;;;;;1.83;55.67;99300.39;106874;1261;60469;-41
2023/02/22 11:59:20;;;;;;;7.90;5.00;;;;;;;1.77;55.80;99298.88;106943;1261;61655;-41
2023/02/22 12:01:53;;;;;;;9.70;5.30;;;;;;;1.77;55.41;99301.55;106943;1260;73933;-41
2023/02/22 12:04:28;;;;;;;6.00;4.70;;;;;;;1.77;54.63;99302.24;106962;1260;68882;-41